Time;durP1;ratioP1;P1;durP2;ratioP2;P2;SDS_P1;SDS_P2;PMS_P1;PMS_P2;Temp;Humidity;BMP_temperature;BMP_pressure;BME280_temperature;BME280_humidity;BME280_pressure;Samples;Min_cycle;Max_cycle;Signal;HPM_P1;HPM_P2
2023/10/11 00:00:39;;;;;;;0.40;0.20;;;;;;;13.75;98.13;100455.50;4974825;28;20486;-53
2023/10/11 00:03:54;;;;;;;0.40;0.20;;;;;;;13.83;98.17;100450.72;4962541;28;21008;-54
2023/10/11 00:05:55;;;;;;;0.40;0.20;;;;;;;13.58;98.07;100453.50;4946208;28;20463;-53
2023/10/11 00:08:25;;;;;;;0.40;0.20;;;;;;;13.53;98.67;100449.25;4968865;28;20464;-52
2023/10/11 00:10:57;;;;;;;0.40;0.20;;;;;;;13.66;97.72;100450.50;4966003;28;21255;-53
2023/10/11 00:13:32;;;;;;;0.40;0.20;;;;;;;13.60;100.00;100448.09;4962062;28;20446;-53
2023/10/11 00:16:08;;;;;;;0.40;0.20;;;;;;;13.76;98.60;100441.22;4963330;28;20501;-53
2023/10/11 00:18:40;;;;;;;0.40;0.20;;;;;;;13.56;98.50;100443.78;4963503;28;20494;-53
2023/10/11 00:21:51;;;;;;;0.40;0.20;;;;;;;13.60;98.69;100446.28;4968471;28;20519;-53
2023/10/11 00:23:58;;;;;;;0.40;0.20;;;;;;;13.46;97.90;100443.28;4963911;28;20582;-54
2023/10/11 00:26:25;;;;;;;0.60;0.60;;;;;;;13.53;98.83;100442.09;4962023;28;20453;-53
2023/10/11 00:28:52;;;;;;;0.40;0.20;;;;;;;13.52;98.19;100436.81;4963697;28;20451;-53
2023/10/11 00:31:19;;;;;;;0.40;0.20;;;;;;;13.56;97.59;100435.75;4968482;28;20454;-53
2023/10/11 00:33:47;;;;;;;0.40;0.20;;;;;;;13.41;96.71;100436.34;4966953;28;20536;-54
2023/10/11 00:36:16;;;;;;;0.40;0.20;;;;;;;13.40;99.44;100430.13;4961983;28;20490;-53
2023/10/11 00:38:47;;;;;;;0.40;0.20;;;;;;;13.25;99.66;100428.06;4962393;28;20457;-53
2023/10/11 00:41:20;;;;;;;0.40;0.20;;;;;;;13.22;99.23;100426.38;4974975;28;20458;-53
2023/10/11 00:43:52;;;;;;;0.40;0.20;;;;;;;13.25;98.24;100423.59;4960788;28;20469;-54
2023/10/11 00:46:27;;;;;;;0.40;0.20;;;;;;;13.10;99.19;100424.13;4963728;28;20442;-54
2023/10/11 00:49:04;;;;;;;0.40;0.20;;;;;;;13.05;98.81;100423.44;4960821;28;20449;-53
2023/10/11 00:51:31;;;;;;;0.40;0.20;;;;;;;12.93;99.09;100416.75;4963836;28;20447;-54
2023/10/11 00:53:59;;;;;;;0.40;0.20;;;;;;;13.02;98.91;100423.56;4967975;28;20510;-53
2023/10/11 00:56:31;;;;;;;0.40;0.20;;;;;;;13.11;98.68;100419.66;4966193;28;20537;-52
2023/10/11 00:59:00;;;;;;;0.40;0.20;;;;;;;12.92;98.32;100414.13;4961321;28;20470;-54
2023/10/11 01:01:27;;;;;;;0.40;0.20;;;;;;;12.87;97.57;100416.94;4974450;28;20604;-54
2023/10/11 01:03:54;;;;;;;0.40;0.20;;;;;;;12.80;98.76;100409.22;4961526;28;20557;-53
2023/10/11 01:06:25;;;;;;;0.40;0.20;;;;;;;12.79;99.28;100415.50;4961456;28;20804;-53
2023/10/11 01:08:53;;;;;;;0.40;0.20;;;;;;;12.79;98.09;100407.50;4961875;28;20447;-54
2023/10/11 01:11:19;;;;;;;0.40;0.20;;;;;;;12.53;98.58;100403.94;4972957;28;20446;-53
2023/10/11 01:13:52;;;;;;;0.40;0.20;;;;;;;12.62;98.98;100405.44;4962367;28;20798;-54
2023/10/11 01:16:25;;;;;;;0.40;0.20;;;;;;;12.60;98.39;100404.59;4961062;28;20495;-53
2023/10/11 01:18:52;;;;;;;0.40;0.20;;;;;;;12.63;98.20;100404.50;4964790;28;20494;-53
2023/10/11 01:21:19;;;;;;;0.40;0.20;;;;;;;12.61;98.72;100395.66;4967652;28;20828;-54
2023/10/11 01:23:46;;;;;;;0.40;0.20;;;;;;;12.59;99.30;100409.03;4964089;28;20466;-53
2023/10/11 01:26:12;;;;;;;0.40;0.20;;;;;;;12.47;100.00;100406.81;4960898;28;20824;-53
2023/10/11 01:28:41;;;;;;;0.40;0.20;;;;;;;12.48;98.72;100408.56;4964271;28;20455;-53
2023/10/11 01:31:09;;;;;;;0.40;0.20;;;;;;;12.44;99.40;100406.91;4967354;28;20519;-53
2023/10/11 01:33:41;;;;;;;0.40;0.20;;;;;;;12.49;98.44;100406.78;4964431;28;20454;-54
2023/10/11 01:36:10;;;;;;;0.40;0.20;;;;;;;12.53;98.54;100389.75;4960396;28;20521;-53
2023/10/11 01:38:47;;;;;;;0.40;0.20;;;;;;;12.51;98.65;100397.78;4962780;28;20554;-53
2023/10/11 01:41:15;;;;;;;0.40;0.20;;;;;;;12.49;98.92;100398.78;4967347;28;20451;-53
2023/10/11 01:43:45;;;;;;;0.40;0.20;;;;;;;12.56;98.10;100397.63;4967916;28;20458;-53
2023/10/11 01:46:16;;;;;;;0.40;0.20;;;;;;;12.51;98.15;100389.78;4966627;28;20443;-54
2023/10/11 01:48:46;;;;;;;0.40;0.20;;;;;;;12.41;97.86;100388.38;4966933;28;20470;-53
2023/10/11 01:51:16;;;;;;;0.40;0.20;;;;;;;12.40;98.49;100387.50;4962699;28;20458;-53
2023/10/11 01:53:44;;;;;;;0.40;0.20;;;;;;;12.31;98.28;100382.47;4960778;28;20488;-54
2023/10/11 01:56:13;;;;;;;0.40;0.20;;;;;;;12.15;99.47;100387.44;4964166;28;20495;-53
2023/10/11 01:58:42;;;;;;;0.40;0.20;;;;;;;12.29;99.26;100381.66;4968912;28;20452;-54
2023/10/11 02:01:24;;;;;;;0.40;0.20;;;;;;;12.16;99.43;100386.53;4973101;28;20462;-53
2023/10/11 02:03:54;;;;;;;0.40;0.20;;;;;;;12.14;99.46;100375.06;4960569;28;20458;-53
2023/10/11 02:06:21;;;;;;;0.40;0.20;;;;;;;12.08;99.25;100390.38;4961018;28;20811;-53
2023/10/11 02:08:48;;;;;;;0.40;0.20;;;;;;;12.06;99.78;100378.88;4953818;28;20491;-53
2023/10/11 02:11:15;;;;;;;0.40;0.20;;;;;;;12.09;99.33;100379.69;4966559;28;20931;-53
2023/10/11 02:13:42;;;;;;;0.40;0.20;;;;;;;11.99;98.81;100375.56;4960865;28;20454;-53
2023/10/11 02:16:14;;;;;;;0.37;0.20;;;;;;;12.10;98.54;100375.22;4960598;28;20647;-53
2023/10/11 02:18:42;;;;;;;0.40;0.20;;;;;;;12.09;98.63;100376.16;4965037;28;20491;-53
2023/10/11 02:21:09;;;;;;;0.40;0.20;;;;;;;11.93;98.16;100375.78;4966854;28;20490;-53
2023/10/11 02:23:42;;;;;;;0.40;0.20;;;;;;;11.87;98.19;100375.97;4962419;28;20509;-53
2023/10/11 02:26:12;;;;;;;0.40;0.20;;;;;;;11.95;98.96;100381.06;4960158;28;20447;-53
2023/10/11 02:28:40;;;;;;;0.40;0.20;;;;;;;11.83;98.63;100377.00;4963446;28;20506;-53
2023/10/11 02:31:07;;;;;;;0.40;0.20;;;;;;;12.05;98.85;100378.00;4966726;28;20941;-53
2023/10/11 02:33:34;;;;;;;0.40;0.20;;;;;;;11.95;98.72;100379.25;4964163;28;20578;-54
2023/10/11 02:36:08;;;;;;;0.40;0.20;;;;;;;11.84;99.03;100381.41;4959966;28;20486;-53
2023/10/11 02:38:47;;;;;;;0.40;0.20;;;;;;;11.92;99.04;100389.13;4961494;28;20501;-53
2023/10/11 02:41:17;;;;;;;0.40;0.20;;;;;;;11.88;98.93;100391.03;4953845;28;20928;-53
2023/10/11 02:43:49;;;;;;;0.40;0.20;;;;;;;11.86;99.19;100387.53;4967695;28;20478;-53
2023/10/11 02:46:16;;;;;;;0.40;0.20;;;;;;;11.82;99.35;100389.44;4964846;28;20443;-53
2023/10/11 02:48:48;;;;;;;0.40;0.20;;;;;;;11.88;99.04;100388.34;4966613;28;20827;-54
2023/10/11 02:51:24;;;;;;;0.40;0.20;;;;;;;11.94;99.24;100392.63;4962890;28;20458;-53
2023/10/11 02:53:53;;;;;;;0.40;0.20;;;;;;;11.89;99.02;100383.91;4960300;28;20594;-53
2023/10/11 02:56:24;;;;;;;0.40;0.20;;;;;;;11.84;99.30;100387.59;4961593;28;20499;-53
2023/10/11 03:01:20;;;;;;;0.40;0.20;;;;;;;11.83;98.71;100385.84;4895292;29;20477;-53
2023/10/11 03:03:48;;;;;;;0.40;0.20;;;;;;;11.75;99.76;100384.31;4896654;29;20461;-52
2023/10/11 03:06:15;;;;;;;0.40;0.20;;;;;;;11.64;100.00;100368.66;4896783;29;20454;-52
2023/10/11 03:08:42;;;;;;;1.40;1.37;;;;;;;11.87;99.82;100367.97;4884335;29;20543;-53
2023/10/11 03:11:09;;;;;;;0.40;0.20;;;;;;;11.74;99.14;100367.47;4897608;29;20480;-54
2023/10/11 03:13:53;;;;;;;0.40;0.20;;;;;;;11.82;99.33;100361.94;4894102;29;20458;-54
2023/10/11 03:16:23;;;;;;;0.40;0.20;;;;;;;11.72;99.53;100363.13;4882948;29;20581;-52
2023/10/11 03:18:52;;;;;;;0.40;0.20;;;;;;;11.62;99.57;100359.88;4891239;29;20544;-53
2023/10/11 03:21:32;;;;;;;0.40;0.20;;;;;;;11.65;99.90;100364.22;4893784;29;20458;-53
2023/10/11 03:24:04;;;;;;;0.40;0.20;;;;;;;11.62;99.35;100359.00;4892593;29;20449;-53
2023/10/11 03:26:38;;;;;;;0.40;0.20;;;;;;;11.58;99.14;100350.25;4887223;29;20457;-53
2023/10/11 03:29:04;;;;;;;0.40;0.30;;;;;;;11.55;99.38;100348.56;4887219;29;20494;-53
2023/10/11 03:31:33;;;;;;;0.40;0.20;;;;;;;11.56;99.31;100344.09;4892840;29;20564;-54
2023/10/11 03:34:10;;;;;;;0.40;0.20;;;;;;;11.67;98.65;100343.75;4893570;29;20454;-53
2023/10/11 03:36:52;;;;;;;0.40;0.20;;;;;;;11.49;97.95;100347.84;4889897;29;21081;-54
2023/10/11 03:42:07;;;;;;;0.40;0.20;;;;;;;11.43;98.12;100351.59;4887187;29;20551;-53
2023/10/11 03:44:40;;;;;;;0.40;0.20;;;;;;;11.50;98.35;100346.94;4888484;29;20898;-53
2023/10/11 03:47:22;;;;;;;0.40;0.20;;;;;;;11.56;99.03;100344.97;4886768;29;20834;-53
2023/10/11 03:49:52;;;;;;;0.40;0.20;;;;;;;11.48;98.53;100344.31;4888828;29;20548;-54
2023/10/11 03:54:47;;;;;;;0.40;0.20;;;;;;;11.40;98.71;100350.81;4892358;29;20458;-53
2023/10/11 03:57:17;;;;;;;0.40;0.20;;;;;;;11.32;98.63;100352.84;4886653;29;20502;-53
2023/10/11 03:59:48;;;;;;;0.40;0.20;;;;;;;11.49;99.05;100346.06;4904048;29;20484;-53
2023/10/11 04:02:17;;;;;;;0.40;0.20;;;;;;;11.45;98.47;100354.22;4911623;29;20510;-53
2023/10/11 04:04:48;;;;;;;0.40;0.20;;;;;;;11.45;98.63;100360.41;4911981;29;21001;-53
2023/10/11 04:07:16;;;;;;;0.30;0.20;;;;;;;11.35;99.64;100350.06;4907106;29;20528;-53
2023/10/11 04:09:46;;;;;;;0.40;0.20;;;;;;;11.33;98.85;100344.81;4904985;29;20480;-53
2023/10/11 04:12:12;;;;;;;0.40;0.20;;;;;;;11.30;99.58;100344.91;4910128;29;20466;-53
2023/10/11 04:14:47;;;;;;;0.40;0.20;;;;;;;11.40;98.68;100335.72;4911753;29;20544;-53
2023/10/11 04:19:59;;;;;;;0.40;0.20;;;;;;;11.32;99.12;100343.06;4904818;29;20841;-53
2023/10/11 04:22:31;;;;;;;0.40;0.20;;;;;;;11.13;99.11;100342.75;4906149;29;20484;-53
2023/10/11 04:25:06;;;;;;;0.40;0.20;;;;;;;11.01;99.07;100343.13;4911022;29;20466;-53
2023/10/11 04:30:17;;;;;;;0.40;0.20;;;;;;;11.15;98.51;100342.72;4906044;29;20512;-54
2023/10/11 04:32:47;;;;;;;0.30;0.20;;;;;;;11.18;98.76;100342.63;4904905;29;20457;-53
2023/10/11 04:35:24;;;;;;;0.40;0.30;;;;;;;11.07;98.84;100350.91;4907310;29;20947;-53
2023/10/11 04:37:54;;;;;;;2.20;2.10;;;;;;;11.09;99.33;100341.09;4911442;29;20453;-54
2023/10/11 04:43:25;;;;;;;0.40;0.20;;;;;;;10.86;98.77;100348.91;4898544;29;20542;-53
2023/10/11 04:45:55;;;;;;;0.40;0.20;;;;;;;10.61;99.03;100349.59;4903454;29;20536;-54
2023/10/11 04:48:33;;;;;;;0.40;0.20;;;;;;;10.80;99.40;100354.38;4905702;29;20454;-53
2023/10/11 04:51:07;;;;;;;0.40;0.20;;;;;;;10.78;99.74;100364.19;4917222;29;20501;-53
2023/10/11 04:53:37;;;;;;;0.40;0.20;;;;;;;10.70;99.78;100368.88;4904375;29;20456;-53
2023/10/11 04:56:51;;;;;;;0.40;0.20;;;;;;;10.77;99.76;100365.97;4908898;29;20493;-52
2023/10/11 04:58:59;;;;;;;0.30;0.20;;;;;;;10.69;100.00;100370.66;4914904;29;20461;-53
2023/10/11 05:01:40;;;;;;;0.73;0.73;;;;;;;10.64;100.00;100367.22;4917034;29;20449;-53
2023/10/11 05:04:12;;;;;;;0.30;0.20;;;;;;;10.76;99.85;100361.56;4898165;29;20458;-53
2023/10/11 05:06:42;;;;;;;0.40;0.20;;;;;;;10.73;100.00;100359.00;4910631;29;20936;-53
2023/10/11 05:11:53;;;;;;;0.30;0.20;;;;;;;10.71;100.00;100373.25;4912615;29;20951;-53
2023/10/11 05:14:29;;;;;;;0.30;0.20;;;;;;;10.75;100.00;100367.81;4909342;29;20449;-53
2023/10/11 05:16:59;;;;;;;0.30;0.20;;;;;;;10.80;99.96;100365.00;4898182;29;20584;-53
2023/10/11 05:19:27;;;;;;;0.30;0.20;;;;;;;10.63;99.73;100354.84;4903961;29;20492;-53
2023/10/11 05:21:55;;;;;;;0.40;0.20;;;;;;;10.61;100.00;100357.56;4908985;29;20548;-54
2023/10/11 05:32:54;;;;;;;0.33;0.20;;;;;;;10.89;99.95;100370.94;4910214;29;20449;-53
2023/10/11 05:51:39;;;;;;;0.30;0.20;;;;;;;10.72;100.00;100359.94;4896963;29;20458;-53
2023/10/11 05:54:08;;;;;;;0.33;0.20;;;;;;;10.63;99.77;100360.16;4909897;29;20461;-53
2023/10/11 05:56:38;;;;;;;0.30;0.20;;;;;;;10.56;99.97;100369.25;4909600;29;20528;-53
2023/10/11 05:59:09;;;;;;;0.30;0.20;;;;;;;10.65;100.00;100375.16;4902695;29;20461;-53
2023/10/11 06:01:36;;;;;;;0.30;0.20;;;;;;;10.77;100.00;100370.41;4915019;29;20533;-54
2023/10/11 06:04:08;;;;;;;0.30;0.20;;;;;;;10.73;100.00;100368.78;4904814;29;20994;-53
2023/10/11 06:06:46;;;;;;;0.40;0.20;;;;;;;10.74;100.00;100365.19;4903366;29;20451;-53
2023/10/11 06:09:16;;;;;;;0.40;0.20;;;;;;;10.91;100.00;100370.91;4905927;29;20489;-53
2023/10/11 06:11:50;;;;;;;0.30;0.20;;;;;;;11.03;100.00;100382.97;4910145;29;20474;-53
2023/10/11 06:14:19;;;;;;;0.30;0.20;;;;;;;10.85;100.00;100368.44;4914593;29;20479;-52
2023/10/11 06:16:57;;;;;;;0.30;0.20;;;;;;;11.02;100.00;100384.75;4902983;29;20508;-54
2023/10/11 06:19:28;;;;;;;0.40;0.20;;;;;;;10.92;100.00;100392.13;4897330;29;20474;-52
2023/10/11 06:21:56;;;;;;;0.30;0.20;;;;;;;11.31;100.00;100393.69;4908608;29;20491;-53
2023/10/11 06:24:24;;;;;;;0.30;0.20;;;;;;;11.47;99.91;100393.16;4909776;29;20541;-53
2023/10/11 06:26:52;;;;;;;0.30;0.20;;;;;;;11.35;99.98;100395.31;4904937;29;20505;-54
2023/10/11 06:29:29;;;;;;;0.30;0.20;;;;;;;11.33;100.00;100403.34;4903242;29;20478;-53
2023/10/11 06:31:56;;;;;;;0.30;0.20;;;;;;;11.45;100.00;100397.66;4906034;29;20453;-52
2023/10/11 06:34:39;;;;;;;0.30;0.20;;;;;;;11.54;100.00;100401.84;4909619;29;20453;-53
2023/10/11 06:37:08;;;;;;;0.40;0.20;;;;;;;11.68;100.00;100409.41;4909036;29;20543;-54
2023/10/11 06:44:51;;;;;;;0.30;0.20;;;;;;;11.75;100.00;100401.16;4897753;29;20476;-54
2023/10/11 06:47:19;;;;;;;0.30;0.30;;;;;;;11.90;100.00;100401.63;4913334;29;20454;-53
2023/10/11 06:49:54;;;;;;;0.30;0.20;;;;;;;12.03;99.95;100398.50;4909938;29;20500;-53
2023/10/11 06:52:33;;;;;;;0.30;0.20;;;;;;;12.20;99.24;100392.66;4906846;29;20457;-53
2023/10/11 06:57:45;;;;;;;0.40;0.20;;;;;;;12.42;99.76;100382.97;4900471;29;20556;-54
2023/10/11 07:00:30;;;;;;;0.30;0.20;;;;;;;12.55;100.00;100387.88;4914875;29;20496;-54
2023/10/11 07:03:26;;;;;;;0.30;0.20;;;;;;;12.82;99.44;100386.91;4908346;29;20469;-54
2023/10/11 07:06:10;;;;;;;0.40;0.20;;;;;;;12.95;99.95;100384.66;4900366;29;20458;-54
2023/10/11 07:08:48;;;;;;;0.30;0.20;;;;;;;12.88;100.00;100383.13;4912871;29;20461;-54
2023/10/11 07:11:49;;;;;;;0.40;0.20;;;;;;;13.11;100.00;100363.59;4913453;29;20484;-54
2023/10/11 07:14:16;;;;;;;0.97;0.97;;;;;;;13.25;100.00;100372.00;4911030;29;20449;-53
2023/10/11 07:16:44;;;;;;;0.40;0.20;;;;;;;13.44;100.00;100369.50;4906123;29;20912;-54
2023/10/11 07:19:15;;;;;;;0.40;0.20;;;;;;;13.63;99.91;100387.41;4907601;29;20574;-54
2023/10/11 07:21:52;;;;;;;0.40;0.20;;;;;;;13.87;98.93;100396.25;4912605;29;20453;-54
2023/10/11 07:27:07;;;;;;;0.37;0.20;;;;;;;14.28;98.69;100412.38;4908098;29;20445;-53
2023/10/11 07:29:42;;;;;;;0.40;0.20;;;;;;;14.49;97.92;100411.50;4905662;29;20472;-53
2023/10/11 07:32:15;;;;;;;0.40;0.20;;;;;;;14.63;99.13;100407.34;4906897;29;20457;-53
2023/10/11 07:34:42;;;;;;;0.40;0.20;;;;;;;14.78;98.65;100412.91;4912324;29;20450;-53
2023/10/11 07:37:11;;;;;;;0.40;0.20;;;;;;;14.98;98.29;100419.19;4911154;29;20493;-54
2023/10/11 07:39:40;;;;;;;0.40;0.20;;;;;;;15.01;97.85;100411.91;4905615;29;20483;-53
2023/10/11 07:42:07;;;;;;;0.40;0.20;;;;;;;14.91;98.94;100407.00;4905791;29;20821;-53
2023/10/11 07:44:38;;;;;;;0.40;0.20;;;;;;;14.99;99.43;100403.06;4900224;29;20679;-53
2023/10/11 07:47:18;;;;;;;0.40;0.20;;;;;;;15.21;98.39;100405.63;4911906;29;20452;-53
2023/10/11 07:49:45;;;;;;;0.40;0.20;;;;;;;15.43;97.95;100399.28;4908185;29;20480;-53
2023/10/11 07:52:19;;;;;;;0.40;0.20;;;;;;;15.70;97.77;100409.59;4905811;29;20465;-53
2023/10/11 07:54:51;;;;;;;0.40;0.20;;;;;;;15.81;97.25;100405.53;4907745;29;20820;-53
2023/10/11 07:57:20;;;;;;;0.40;0.20;;;;;;;15.92;96.98;100398.72;4911341;29;20510;-53
2023/10/11 07:59:51;;;;;;;0.40;0.20;;;;;;;16.09;96.29;100405.94;4910680;29;20489;-53
2023/10/11 08:02:29;;;;;;;0.40;0.20;;;;;;;16.31;95.88;100408.44;4912210;29;20899;-54
2023/10/11 08:04:59;;;;;;;0.40;0.20;;;;;;;16.42;94.59;100414.09;4911492;29;20461;-54
2023/10/11 08:07:27;;;;;;;0.40;0.20;;;;;;;16.64;94.45;100403.13;4907031;29;20445;-53
2023/10/11 08:09:55;;;;;;;0.40;0.20;;;;;;;16.85;94.00;100407.41;4904842;29;20513;-53
2023/10/11 08:12:23;;;;;;;0.40;0.20;;;;;;;16.91;93.55;100413.41;4908359;29;20462;-53
2023/10/11 08:14:56;;;;;;;0.40;0.20;;;;;;;17.07;93.34;100400.91;4911509;29;20812;-54
2023/10/11 08:17:26;;;;;;;0.40;0.20;;;;;;;17.23;92.33;100407.19;4900896;29;21021;-54
2023/10/11 08:19:53;;;;;;;12.30;11.40;;;;;;;17.43;92.42;100404.31;4904725;29;20484;-54
2023/10/11 08:22:22;;;;;;;0.40;0.20;;;;;;;17.48;91.42;100401.34;4906931;29;20549;-53
2023/10/11 08:24:52;;;;;;;0.40;0.20;;;;;;;17.50;90.44;100401.25;4912994;29;20458;-53
2023/10/11 08:27:27;;;;;;;0.40;0.20;;;;;;;17.75;89.07;100401.66;4909840;29;20453;-54
2023/10/11 08:30:09;;;;;;;0.40;0.20;;;;;;;17.93;88.45;100399.75;4898576;29;20482;-53
2023/10/11 08:32:38;;;;;;;0.40;0.20;;;;;;;18.09;87.63;100397.03;4910832;29;20449;-53
2023/10/11 08:35:26;;;;;;;0.40;0.20;;;;;;;18.30;87.10;100391.28;4907195;29;20453;-53
2023/10/11 08:37:53;;;;;;;0.40;0.20;;;;;;;18.40;86.33;100379.97;4904282;29;20593;-53
2023/10/11 08:40:29;;;;;;;0.40;0.20;;;;;;;18.45;85.28;100384.13;4905550;29;21054;-53
2023/10/11 08:43:00;;;;;;;0.40;0.20;;;;;;;18.63;85.09;100388.41;4897875;29;20440;-53
2023/10/11 08:45:33;;;;;;;0.40;0.20;;;;;;;18.77;85.04;100378.63;4899814;29;20454;-53
2023/10/11 08:48:06;;;;;;;0.40;0.20;;;;;;;18.97;84.23;100366.66;4908805;29;20450;-54
2023/10/11 08:50:34;;;;;;;0.40;0.20;;;;;;;19.01;84.33;100370.88;4910806;29;20485;-54
2023/10/11 08:53:08;;;;;;;0.40;0.20;;;;;;;19.23;83.74;100371.28;4907359;29;20463;-54
2023/10/11 08:55:39;;;;;;;0.40;0.20;;;;;;;19.39;83.30;100363.09;4904155;29;20453;-54
2023/10/11 08:58:23;;;;;;;0.40;0.20;;;;;;;19.65;82.41;100356.03;4906142;29;20555;-54
2023/10/11 09:00:58;;;;;;;0.40;0.20;;;;;;;19.83;81.51;100360.22;4905517;29;20493;-51
2023/10/11 09:03:26;;;;;;;0.40;0.20;;;;;;;19.82;82.22;100362.06;4904027;29;20496;-51
2023/10/11 09:05:59;;;;;;;0.40;0.20;;;;;;;20.16;81.28;100362.53;4908534;29;20447;-51
2023/10/11 09:08:31;;;;;;;0.40;0.20;;;;;;;20.28;79.95;100360.81;4909793;29;20482;-51
2023/10/11 09:11:28;;;;;;;0.40;0.20;;;;;;;20.38;78.63;100367.31;4908336;29;20986;-50
2023/10/11 09:14:12;;;;;;;0.40;0.20;;;;;;;20.60;78.34;100364.94;4900089;29;20465;-51
2023/10/11 09:16:40;;;;;;;1.97;1.43;;;;;;;20.63;77.61;100359.31;4903806;29;20580;-51
2023/10/11 09:19:09;;;;;;;0.83;0.83;;;;;;;20.96;76.66;100366.03;4905924;29;20470;-51
2023/10/11 09:21:37;;;;;;;0.40;0.20;;;;;;;21.09;76.25;100358.78;4910747;29;20462;-51
2023/10/11 09:24:25;;;;;;;0.40;0.20;;;;;;;21.19;75.43;100361.69;4909224;29;21007;-51
2023/10/11 09:27:12;;;;;;;0.40;0.20;;;;;;;21.40;74.88;100364.75;4897552;29;20983;-51
2023/10/11 09:29:40;;;;;;;0.40;0.20;;;;;;;21.52;74.25;100367.44;4910287;29;20522;-50
2023/10/11 09:32:06;;;;;;;0.40;0.20;;;;;;;21.74;73.95;100360.44;4908903;29;20457;-51
2023/10/11 09:34:34;;;;;;;0.40;0.20;;;;;;;21.83;72.84;100352.50;4903860;29;20517;-51
2023/10/11 09:37:02;;;;;;;0.40;0.20;;;;;;;21.95;71.14;100361.56;4904679;29;20477;-51
2023/10/11 09:39:29;;;;;;;0.40;0.20;;;;;;;22.12;70.93;100358.47;4909733;29;20485;-51
2023/10/11 09:42:02;;;;;;;0.40;0.20;;;;;;;22.28;70.00;100351.88;4909908;29;20454;-51
2023/10/11 09:44:44;;;;;;;0.43;0.20;;;;;;;22.47;68.99;100357.59;4897301;29;20436;-51
2023/10/11 09:47:16;;;;;;;0.40;0.20;;;;;;;22.49;69.07;100357.53;4910296;29;20445;-51
2023/10/11 09:49:46;;;;;;;0.40;0.20;;;;;;;22.63;68.67;100358.19;4907011;29;20473;-51
2023/10/11 09:52:18;;;;;;;0.40;0.20;;;;;;;22.60;68.50;100355.69;4903503;29;20434;-51
2023/10/11 09:54:47;;;;;;;0.40;0.20;;;;;;;22.66;68.03;100355.22;4905501;29;20461;-50
2023/10/11 09:57:38;;;;;;;0.40;0.20;;;;;;;22.82;67.69;100360.31;4909832;29;20478;-51
2023/10/11 10:00:47;;;;;;;0.40;0.20;;;;;;;22.83;67.51;100358.50;4911621;29;20452;-51
2023/10/11 10:03:14;;;;;;;0.50;0.20;;;;;;;22.90;66.93;100349.78;4903452;29;20462;-51
2023/10/11 10:06:18;;;;;;;0.50;0.30;;;;;;;23.05;66.39;100353.97;4908087;29;20963;-51
2023/10/11 10:08:50;;;;;;;0.47;0.20;;;;;;;22.93;66.21;100351.38;4896982;29;20495;-50
2023/10/11 10:11:19;;;;;;;0.40;0.20;;;;;;;23.25;65.77;100351.50;4909758;29;20844;-51
2023/10/11 10:14:02;;;;;;;0.50;0.20;;;;;;;23.35;64.91;100345.22;4903911;29;20439;-51
2023/10/11 10:17:12;;;;;;;0.50;0.30;;;;;;;23.51;64.65;100346.69;4903061;29;20457;-51
2023/10/11 10:19:39;;;;;;;0.40;0.20;;;;;;;23.59;63.53;100338.81;4899327;29;21051;-51
2023/10/11 10:22:16;;;;;;;0.43;0.20;;;;;;;23.75;63.21;100333.00;4910958;29;20545;-51
2023/10/11 10:24:47;;;;;;;0.73;0.73;;;;;;;23.82;62.42;100329.63;4913655;29;20468;-51
2023/10/11 10:27:23;;;;;;;0.50;0.20;;;;;;;23.88;62.30;100328.25;4910996;29;20448;-51
2023/10/11 10:30:06;;;;;;;0.50;0.20;;;;;;;23.97;61.80;100332.03;4906848;29;20473;-51
2023/10/11 10:32:33;;;;;;;0.47;0.20;;;;;;;24.02;61.47;100324.41;4906902;29;20502;-51
2023/10/11 10:35:18;;;;;;;0.50;0.20;;;;;;;24.06;59.49;100315.00;4911664;29;20450;-51
2023/10/11 10:38:03;;;;;;;0.50;0.20;;;;;;;24.12;59.16;100314.44;4912843;29;20515;-52
2023/10/11 10:40:29;;;;;;;0.40;0.20;;;;;;;24.25;59.30;100323.28;4913289;29;20469;-51
2023/10/11 10:43:22;;;;;;;0.50;0.20;;;;;;;24.43;58.84;100324.50;4919184;29;20460;-51
2023/10/11 10:45:49;;;;;;;0.63;0.63;;;;;;;24.58;57.97;100322.31;4906793;29;20477;-51
2023/10/11 10:48:19;;;;;;;0.47;0.20;;;;;;;24.59;57.52;100317.72;4909014;29;20799;-51
2023/10/11 10:50:50;;;;;;;0.50;0.20;;;;;;;24.83;57.31;100309.28;4913433;29;20474;-51
2023/10/11 10:53:20;;;;;;;0.50;0.20;;;;;;;24.86;56.74;100317.19;4912316;29;20508;-51
2023/10/11 10:55:47;;;;;;;0.50;0.30;;;;;;;24.93;56.45;100316.50;4906607;29;20434;-51
2023/10/11 10:58:22;;;;;;;0.50;0.30;;;;;;;25.09;55.65;100305.16;4907033;29;20489;-51
2023/10/11 11:00:53;;;;;;;0.47;0.20;;;;;;;25.13;55.57;100305.75;4907174;29;20486;-51
2023/10/11 11:03:23;;;;;;;1.80;1.70;;;;;;;25.16;55.48;100311.78;4906791;29;20491;-51
2023/10/11 11:05:55;;;;;;;0.50;0.20;;;;;;;25.24;54.33;100311.97;4911186;29;20429;-51
2023/10/11 11:08:27;;;;;;;5.67;1.17;;;;;;;25.35;53.06;100306.38;4912907;29;20532;-52
2023/10/11 11:11:19;;;;;;;0.50;0.20;;;;;;;25.23;52.43;100306.66;4910357;29;20444;-51
2023/10/11 11:13:47;;;;;;;0.50;0.20;;;;;;;25.53;51.58;100303.88;4907171;29;20491;-51
2023/10/11 11:16:15;;;;;;;0.50;0.20;;;;;;;25.53;52.46;100303.03;4906707;29;20488;-51
2023/10/11 11:18:43;;;;;;;0.50;0.30;;;;;;;25.38;52.23;100300.69;4911139;29;20532;-51
2023/10/11 11:21:25;;;;;;;0.50;0.20;;;;;;;25.49;50.55;100302.41;4912619;29;20554;-51
2023/10/11 11:23:52;;;;;;;0.50;0.20;;;;;;;25.41;51.16;100296.84;4909744;29;20453;-51
2023/10/11 11:26:23;;;;;;;0.50;0.30;;;;;;;25.50;51.22;100300.59;4905483;29;20512;-50
2023/10/11 11:29:08;;;;;;;0.50;0.20;;;;;;;25.64;51.11;100295.59;4906370;29;20799;-51
2023/10/11 11:31:51;;;;;;;0.50;0.30;;;;;;;25.70;50.99;100288.75;4917499;29;20487;-51
2023/10/11 11:34:27;;;;;;;0.50;0.30;;;;;;;25.70;50.76;100288.75;4905509;29;20456;-51
2023/10/11 11:36:59;;;;;;;0.43;0.20;;;;;;;25.86;50.75;100278.16;4907939;29;20866;-51
2023/10/11 11:39:49;;;;;;;0.50;0.23;;;;;;;25.87;49.39;100276.31;4911487;29;20474;-51
2023/10/11 11:42:19;;;;;;;0.50;0.23;;;;;;;25.85;48.97;100273.72;4912184;29;20468;-51
2023/10/11 11:44:46;;;;;;;0.50;0.20;;;;;;;25.86;48.95;100267.28;4900475;29;20461;-51
2023/10/11 11:47:21;;;;;;;0.50;0.20;;;;;;;25.99;49.14;100264.25;4912110;29;20453;-51
2023/10/11 11:49:53;;;;;;;0.50;0.23;;;;;;;26.06;48.31;100259.13;4917944;29;20477;-52
2023/10/11 11:52:20;;;;;;;0.50;0.30;;;;;;;26.14;48.01;100260.09;4905700;29;20457;-51
2023/10/11 11:54:47;;;;;;;0.50;0.20;;;;;;;26.13;46.83;100258.38;4907438;29;20481;-51
2023/10/11 11:57:13;;;;;;;0.50;0.23;;;;;;;26.05;45.87;100250.09;4911635;29;20454;-51
2023/10/11 11:59:43;;;;;;;0.50;0.20;;;;;;;26.09;46.33;100248.78;4909852;29;20850;-51
2023/10/11 12:02:16;;;;;;;0.50;0.20;;;;;;;26.24;45.99;100244.59;4913022;29;20563;-51
2023/10/11 12:04:44;;;;;;;0.50;0.20;;;;;;;26.15;45.79;100242.75;4911404;29;20808;-51
2023/10/11 12:07:11;;;;;;;0.50;0.30;;;;;;;26.08;45.67;100248.94;4904717;29;20461;-51
2023/10/11 12:09:38;;;;;;;0.50;0.20;;;;;;;26.16;45.71;100240.88;4905226;29;20474;-51
2023/10/11 12:12:25;;;;;;;0.50;0.30;;;;;;;26.31;45.70;100244.00;4908074;29;20454;-51
2023/10/11 12:14:53;;;;;;;0.50;0.30;;;;;;;26.39;45.04;100245.03;4911355;29;20918;-51
2023/10/11 12:17:19;;;;;;;0.50;0.30;;;;;;;26.44;45.60;100228.22;4908159;29;20461;-52
2023/10/11 12:19:53;;;;;;;0.50;0.20;;;;;;;26.45;45.57;100229.94;4904494;29;20476;-51
2023/10/11 12:22:22;;;;;;;0.50;0.30;;;;;;;26.48;45.28;100225.09;4906856;29;20888;-51
2023/10/11 12:24:49;;;;;;;0.50;0.20;;;;;;;26.58;45.49;100228.63;4911730;29;20454;-51
2023/10/11 12:27:16;;;;;;;0.50;0.27;;;;;;;26.48;45.18;100227.81;4910087;29;20449;-51
2023/10/11 12:29:44;;;;;;;0.50;0.20;;;;;;;26.65;45.09;100233.50;4904642;29;20481;-51
2023/10/11 12:32:33;;;;;;;0.50;0.20;;;;;;;26.64;44.18;100221.75;4903973;29;20454;-51
2023/10/11 12:35:04;;;;;;;0.50;0.30;;;;;;;26.57;44.42;100221.44;4908679;29;20458;-51
2023/10/11 12:37:33;;;;;;;0.50;0.20;;;;;;;26.54;44.72;100219.03;4910890;29;20553;-51
2023/10/11 12:40:00;;;;;;;0.50;0.30;;;;;;;26.60;44.52;100217.59;4907867;29;20473;-51
2023/10/11 12:42:26;;;;;;;0.50;0.30;;;;;;;26.47;44.49;100212.47;4904294;29;20461;-51